Time;durP1;ratioP1;P1;durP2;ratioP2;P2;SDS_P1;SDS_P2;PMS_P1;PMS_P2;Temp;Humidity;BMP_temperature;BMP_pressure;BME280_temperature;BME280_humidity;BME280_pressure;Samples;Min_cycle;Max_cycle;Signal;HPM_P1;HPM_P2
2023/04/01 00:00:22;;;;;;;2.67;1.70;;;10.10;99.90;;;;;;5030542;28;20108;-63
2023/04/01 00:02:47;;;;;;;2.22;1.35;;;10.10;99.90;;;;;;5028425;28;20112;-62
2023/04/01 00:05:13;;;;;;;2.50;1.40;;;10.10;99.90;;;;;;5035532;28;20029;-62
2023/04/01 00:07:40;;;;;;;1.38;1.25;;;10.10;99.90;;;;;;5021490;28;20029;-62
2023/04/01 00:10:11;;;;;;;2.35;1.85;;;10.10;99.90;;;;;;5029037;28;20056;-63
2023/04/01 00:12:37;;;;;;;2.65;1.73;;;10.10;99.90;;;;;;5032794;28;20120;-63
2023/04/01 00:15:05;;;;;;;2.75;1.85;;;10.10;99.90;;;;;;5048025;28;20033;-62
2023/04/01 00:17:30;;;;;;;5.72;2.00;;;10.10;99.90;;;;;;5037734;28;20033;-62
2023/04/01 00:19:56;;;;;;;1.90;1.45;;;10.10;99.90;;;;;;5028353;28;20553;-62
2023/04/01 00:22:23;;;;;;;2.60;1.55;;;10.10;99.90;;;;;;5027931;28;20033;-62
2023/04/01 00:24:48;;;;;;;2.47;1.98;;;10.00;99.90;;;;;;5031593;28;20552;-62
2023/04/01 00:27:15;;;;;;;4.13;1.52;;;10.10;99.90;;;;;;5030711;28;20029;-63
2023/04/01 00:29:48;;;;;;;2.97;1.70;;;10.00;99.90;;;;;;5036377;28;20120;-62
2023/04/01 00:32:14;;;;;;;2.25;1.70;;;10.00;99.90;;;;;;5033038;28;20072;-63
2023/04/01 00:34:40;;;;;;;2.38;2.08;;;10.00;99.90;;;;;;5039832;28;20029;-62
2023/04/01 00:37:06;;;;;;;5.55;2.13;;;10.00;99.90;;;;;;5033799;28;20040;-63
2023/04/01 00:39:33;;;;;;;3.58;2.08;;;10.00;99.90;;;;;;5028135;28;20120;-62
2023/04/01 00:42:00;;;;;;;2.85;1.60;;;10.00;99.90;;;;;;5038095;28;20139;-63
2023/04/01 00:44:28;;;;;;;3.28;2.00;;;10.00;99.90;;;;;;5027711;28;20096;-62
2023/04/01 00:46:54;;;;;;;3.28;2.42;;;10.00;99.90;;;;;;5032885;28;20493;-63
2023/04/01 00:49:24;;;;;;;2.72;1.80;;;10.00;99.90;;;;;;5032147;28;20028;-63
2023/04/01 00:51:54;;;;;;;3.85;2.50;;;10.00;99.90;;;;;;5020347;28;20028;-63
2023/04/01 00:54:22;;;;;;;4.18;2.47;;;10.00;99.90;;;;;;5014447;28;20103;-63
2023/04/01 00:56:57;;;;;;;4.68;2.40;;;10.00;99.90;;;;;;5040018;28;20079;-63
2023/04/01 00:59:38;;;;;;;3.80;2.50;;;10.00;99.90;;;;;;5027416;28;20021;-63
2023/04/01 01:02:06;;;;;;;5.43;2.70;;;10.00;99.90;;;;;;5031597;28;20072;-63
2023/04/01 01:04:34;;;;;;;3.65;2.60;;;10.00;99.90;;;;;;5027170;28;20047;-62
2023/04/01 01:07:05;;;;;;;5.03;2.53;;;10.00;99.90;;;;;;5038049;28;20127;-63
2023/04/01 01:09:43;;;;;;;3.90;2.20;;;9.90;99.90;;;;;;5036188;28;20112;-62
2023/04/01 01:12:14;;;;;;;3.15;2.10;;;10.00;99.90;;;;;;5020656;28;20033;-63
2023/04/01 01:14:58;;;;;;;4.32;2.33;;;10.00;99.90;;;;;;5024404;28;20446;-63
2023/04/01 01:17:43;;;;;;;3.17;1.95;;;9.90;99.90;;;;;;5019853;28;20531;-62
2023/04/01 01:20:41;;;;;;;4.60;2.65;;;9.90;99.90;;;;;;5032915;28;20477;-63
2023/04/01 01:23:18;;;;;;;3.78;2.40;;;9.90;99.90;;;;;;5024189;28;20035;-63
2023/04/01 01:26:13;;;;;;;4.68;2.83;;;9.90;99.90;;;;;;5026607;28;20493;-63
2023/04/01 01:28:55;;;;;;;3.72;2.80;;;9.90;99.90;;;;;;5024731;28;20029;-62
2023/04/01 01:31:22;;;;;;;2.80;2.20;;;9.90;99.90;;;;;;5022574;28;20401;-63
2023/04/01 01:34:01;;;;;;;4.60;2.67;;;9.90;99.90;;;;;;5035782;28;20265;-63
2023/04/01 01:36:34;;;;;;;5.88;3.30;;;9.90;99.90;;;;;;5025144;28;20490;-62
2023/04/01 01:39:02;;;;;;;4.13;2.70;;;9.90;99.90;;;;;;5019008;28;20589;-63
2023/04/01 01:41:28;;;;;;;4.95;2.80;;;9.90;99.90;;;;;;5033796;28;20136;-62
2023/04/01 01:43:56;;;;;;;4.35;3.08;;;9.90;99.90;;;;;;5030244;28;20075;-62
2023/04/01 01:46:25;;;;;;;4.78;2.95;;;9.90;99.90;;;;;;5032665;28;20465;-63
2023/04/01 01:48:52;;;;;;;7.20;2.75;;;9.90;99.90;;;;;;5018157;28;20040;-63
2023/04/01 01:51:19;;;;;;;3.88;2.67;;;9.90;99.90;;;;;;5032680;28;20341;-62
2023/04/01 01:53:45;;;;;;;4.22;2.65;;;9.90;99.90;;;;;;5027138;28;20039;-62
2023/04/01 01:56:15;;;;;;;4.20;3.22;;;9.90;99.90;;;;;;5007565;28;20105;-62
2023/04/01 01:58:47;;;;;;;3.90;3.03;;;9.90;99.90;;;;;;5026713;28;20125;-63
2023/04/01 02:01:17;;;;;;;3.30;2.28;;;9.90;99.90;;;;;;5047324;28;20021;-63
2023/04/01 02:03:44;;;;;;;3.88;2.92;;;9.80;99.90;;;;;;5025641;28;20042;-63
2023/04/01 02:06:15;;;;;;;4.72;3.10;;;9.80;99.90;;;;;;5044306;28;20040;-63
2023/04/01 02:08:45;;;;;;;5.40;3.30;;;9.90;99.90;;;;;;5017973;28;20022;-62
2023/04/01 02:11:15;;;;;;;5.10;2.78;;;9.80;99.90;;;;;;5048193;28;20025;-63
2023/04/01 02:14:05;;;;;;;5.82;3.35;;;9.80;99.90;;;;;;5026496;28;20056;-63
2023/04/01 02:16:41;;;;;;;5.22;3.25;;;9.80;99.90;;;;;;5008657;28;20556;-63
2023/04/01 02:19:09;;;;;;;4.13;2.88;;;9.80;99.90;;;;;;5021811;28;20045;-63
2023/04/01 02:21:36;;;;;;;7.40;3.53;;;9.80;99.90;;;;;;5047743;28;20056;-62
2023/04/01 02:24:05;;;;;;;5.30;3.70;;;9.80;99.90;;;;;;5026830;28;20626;-63
2023/04/01 02:26:31;;;;;;;4.63;3.38;;;9.80;99.90;;;;;;5047815;28;20064;-62
2023/04/01 02:28:59;;;;;;;4.68;3.10;;;9.80;99.90;;;;;;5026973;28;20053;-63
2023/04/01 02:31:25;;;;;;;6.32;3.40;;;9.80;99.90;;;;;;5045170;28;20397;-61
2023/04/01 02:33:51;;;;;;;5.18;3.20;;;9.80;99.90;;;;;;5026346;28;20037;-63
2023/04/01 02:36:17;;;;;;;4.30;3.20;;;9.80;99.90;;;;;;5047403;28;20029;-63
2023/04/01 02:38:45;;;;;;;5.95;3.70;;;9.90;99.90;;;;;;5026683;28;20486;-63
2023/04/01 02:41:11;;;;;;;6.80;4.18;;;9.80;99.90;;;;;;5047463;28;20037;-63
2023/04/01 02:43:36;;;;;;;5.15;3.85;;;9.90;99.90;;;;;;5026766;28;20707;-63
2023/04/01 02:46:02;;;;;;;4.32;3.70;;;9.90;99.90;;;;;;5050716;28;20049;-63
2023/04/01 02:48:28;;;;;;;4.57;3.10;;;9.90;99.90;;;;;;5030431;28;20116;-62
2023/04/01 02:50:54;;;;;;;6.13;4.10;;;9.90;99.90;;;;;;5051140;28;20400;-63
2023/04/01 02:53:19;;;;;;;4.15;3.40;;;9.90;99.90;;;;;;5030257;28;20037;-62
2023/04/01 02:55:45;;;;;;;5.63;3.95;;;9.90;99.90;;;;;;5050839;28;20036;-63
2023/04/01 02:58:11;;;;;;;7.35;4.00;;;9.90;99.90;;;;;;5030428;28;20033;-63
2023/04/01 03:00:37;;;;;;;8.27;4.85;;;9.90;99.90;;;;;;5031620;28;20418;-63
2023/04/01 03:03:02;;;;;;;6.55;3.67;;;9.90;99.90;;;;;;5042516;28;20498;-62
2023/04/01 03:05:28;;;;;;;5.35;3.83;;;9.90;99.90;;;;;;5030034;28;20033;-62
2023/04/01 03:07:54;;;;;;;9.48;4.47;;;9.90;99.90;;;;;;5051578;28;20071;-63
2023/04/01 03:10:19;;;;;;;5.30;3.63;;;9.90;99.90;;;;;;5030294;28;20037;-63
2023/04/01 03:12:45;;;;;;;6.75;4.40;;;9.90;99.90;;;;;;5050729;28;20116;-63
2023/04/01 03:15:11;;;;;;;4.90;3.42;;;9.90;99.90;;;;;;5030300;28;20025;-63
2023/04/01 03:17:38;;;;;;;6.72;4.10;;;9.90;99.90;;;;;;5031501;28;20116;-63
2023/04/01 03:20:04;;;;;;;6.72;4.55;;;9.90;99.90;;;;;;5032536;28;20029;-63
2023/04/01 03:22:30;;;;;;;6.95;4.45;;;9.90;99.90;;;;;;5050806;28;20033;-63
2023/04/01 03:24:56;;;;;;;5.32;3.42;;;9.90;99.90;;;;;;5030000;28;20113;-63
2023/04/01 03:27:21;;;;;;;6.60;4.30;;;9.90;99.90;;;;;;5050419;28;20025;-63
2023/04/01 03:29:47;;;;;;;6.18;3.67;;;9.90;99.90;;;;;;5030111;28;20021;-69
2023/04/01 03:32:12;;;;;;;6.65;4.25;;;9.90;99.90;;;;;;5038737;28;20540;-52
2023/04/01 03:34:38;;;;;;;6.80;5.07;;;9.90;99.90;;;;;;5050148;28;20393;-57
2023/04/01 03:37:03;;;;;;;6.35;4.15;;;9.90;99.90;;;;;;5038308;28;20052;-57
2023/04/01 03:39:30;;;;;;;7.03;4.68;;;9.90;99.90;;;;;;5031581;28;20108;-58
2023/04/01 03:41:56;;;;;;;8.05;4.38;;;9.90;99.90;;;;;;5048354;28;20229;-57
2023/04/01 03:44:21;;;;;;;9.30;4.57;;;9.90;99.90;;;;;;5050813;28;20064;-57
2023/04/01 03:46:47;;;;;;;5.80;3.78;;;10.00;99.90;;;;;;5035656;28;20084;-57
2023/04/01 03:49:12;;;;;;;6.70;4.28;;;9.90;99.90;;;;;;5050816;28;20397;-57
2023/04/01 03:51:40;;;;;;;6.18;4.50;;;9.90;99.90;;;;;;5034124;28;20116;-58
2023/04/01 03:54:05;;;;;;;7.40;4.70;;;9.90;99.90;;;;;;5050700;28;20021;-58
2023/04/01 03:56:31;;;;;;;5.88;4.32;;;9.90;99.90;;;;;;5032250;28;20024;-58
2023/04/01 03:58:56;;;;;;;6.07;4.25;;;9.90;99.90;;;;;;5050539;28;20029;-58
2023/04/01 04:01:22;;;;;;;6.90;4.20;;;9.90;99.90;;;;;;5031923;28;20029;-56
2023/04/01 04:03:49;;;;;;;6.65;4.28;;;9.90;99.90;;;;;;5050570;28;20042;-57
2023/04/01 04:06:16;;;;;;;6.75;4.63;;;9.90;99.90;;;;;;5027304;28;20034;-57
2023/04/01 04:08:41;;;;;;;8.27;4.93;;;9.90;99.90;;;;;;5050225;28;20091;-58
2023/04/01 04:11:07;;;;;;;10.13;5.97;;;9.90;99.90;;;;;;5029798;28;20057;-58
2023/04/01 04:13:33;;;;;;;8.75;4.68;;;10.00;99.90;;;;;;5050272;28;20033;-58
2023/04/01 04:15:59;;;;;;;7.65;4.88;;;10.00;99.90;;;;;;5030729;28;20021;-58
2023/04/01 04:18:24;;;;;;;8.45;5.28;;;9.90;99.90;;;;;;5048071;28;20024;-58
2023/04/01 04:20:50;;;;;;;9.95;5.13;;;10.00;99.90;;;;;;5030688;28;20071;-58
2023/04/01 04:23:17;;;;;;;8.38;5.07;;;9.90;99.90;;;;;;5029190;28;20386;-58
2023/04/01 04:26:04;;;;;;;7.93;5.53;;;9.90;99.90;;;;;;5049195;28;20033;-58
2023/04/01 04:28:31;;;;;;;10.13;5.35;;;9.90;99.90;;;;;;5010344;28;20038;-58
2023/04/01 04:30:57;;;;;;;7.25;5.35;;;9.90;99.90;;;;;;5048577;28;20512;-58
2023/04/01 04:33:23;;;;;;;7.07;4.80;;;10.00;99.90;;;;;;5046622;28;20444;-58
2023/04/01 04:35:49;;;;;;;6.38;4.75;;;9.90;99.90;;;;;;5030462;28;20040;-58
2023/04/01 04:38:15;;;;;;;10.20;5.20;;;10.00;99.90;;;;;;5028967;28;20030;-58
2023/04/01 04:40:41;;;;;;;6.93;4.70;;;10.00;99.90;;;;;;5048857;28;20029;-57
2023/04/01 04:43:09;;;;;;;8.13;5.55;;;10.00;99.90;;;;;;5028320;28;20080;-58
2023/04/01 04:45:35;;;;;;;7.53;4.97;;;10.00;99.90;;;;;;5049103;28;20102;-57
2023/04/01 04:48:00;;;;;;;6.68;5.10;;;10.00;99.90;;;;;;5028223;28;20030;-58
2023/04/01 04:50:26;;;;;;;8.25;5.13;;;10.00;99.90;;;;;;5048833;28;20079;-58
2023/04/01 04:52:51;;;;;;;8.02;5.63;;;10.00;99.90;;;;;;5028531;28;20533;-58
2023/04/01 04:55:17;;;;;;;10.43;6.00;;;10.00;99.90;;;;;;5048890;28;20068;-58
2023/04/01 04:57:43;;;;;;;7.72;5.47;;;10.00;99.90;;;;;;5028069;28;20038;-58
2023/04/01 05:00:12;;;;;;;8.27;5.72;;;10.00;99.90;;;;;;5048544;28;20093;-58
2023/04/01 05:02:37;;;;;;;8.10;5.30;;;10.00;99.90;;;;;;5027399;28;20095;-57
2023/04/01 05:05:04;;;;;;;8.32;5.75;;;10.10;99.90;;;;;;5045659;28;20037;-57
2023/04/01 05:07:29;;;;;;;9.30;5.72;;;10.00;99.90;;;;;;5039093;28;20029;-58
2023/04/01 05:09:55;;;;;;;5.32;4.18;;;10.10;99.90;;;;;;5029973;28;20500;-57
2023/04/01 05:12:20;;;;;;;10.07;6.55;;;10.10;99.90;;;;;;5046381;28;20508;-58
2023/04/01 05:14:46;;;;;;;9.77;6.22;;;10.10;99.90;;;;;;5029655;28;20064;-56
2023/04/01 05:17:12;;;;;;;7.28;5.90;;;10.10;99.90;;;;;;5046425;28;20028;-58
2023/04/01 05:19:38;;;;;;;9.55;6.28;;;10.10;99.90;;;;;;5029270;28;20468;-58
2023/04/01 05:22:04;;;;;;;10.88;7.35;;;10.10;99.90;;;;;;5046519;28;20104;-58
2023/04/01 05:24:30;;;;;;;9.27;5.65;;;10.20;99.90;;;;;;5029348;28;20493;-58
2023/04/01 05:26:57;;;;;;;9.10;5.82;;;10.20;99.90;;;;;;5046263;28;20044;-58
2023/04/01 05:29:22;;;;;;;10.32;6.47;;;10.20;99.90;;;;;;5048737;28;20013;-58
2023/04/01 05:31:48;;;;;;;9.25;6.15;;;10.20;99.90;;;;;;5033659;28;20059;-56
2023/04/01 05:34:13;;;;;;;10.65;6.55;;;10.20;99.90;;;;;;5048963;28;20029;-58
2023/04/01 05:36:39;;;;;;;9.82;6.22;;;10.20;99.90;;;;;;5032374;28;20112;-58
2023/04/01 05:39:05;;;;;;;10.25;5.40;;;10.20;99.90;;;;;;5048820;28;20028;-58
2023/04/01 05:41:30;;;;;;;10.27;6.22;;;10.30;99.90;;;;;;5031315;28;20033;-58
2023/04/01 05:43:56;;;;;;;8.13;5.70;;;10.30;99.90;;;;;;5048414;28;20032;-57
2023/04/01 05:46:21;;;;;;;9.07;6.00;;;10.30;99.90;;;;;;5029798;28;20047;-57
2023/04/01 05:48:47;;;;;;;10.35;6.63;;;10.30;99.90;;;;;;5048650;28;20029;-58
2023/04/01 05:51:14;;;;;;;8.93;5.20;;;10.40;99.90;;;;;;5028736;28;20721;-57
2023/04/01 05:53:40;;;;;;;11.10;6.50;;;10.40;99.90;;;;;;5048319;28;20038;-57
2023/04/01 05:56:08;;;;;;;9.95;6.00;;;10.40;99.90;;;;;;5027711;28;20057;-57
2023/04/01 05:58:33;;;;;;;7.30;5.13;;;10.50;99.90;;;;;;5048381;28;20235;-58
2023/04/01 06:01:09;;;;;;;6.55;5.05;;;10.50;99.90;;;;;;5029080;28;20668;-58
2023/04/01 06:03:35;;;;;;;;;;;10.60;99.90;;;;;;5028853;28;20030;-57
2023/04/01 06:06:01;;;;;;;5.60;3.23;;;10.70;99.90;;;;;;5033665;28;19924;-58
2023/04/01 06:08:29;;;;;;;7.15;4.85;;;10.70;99.90;;;;;;5047154;28;20028;-58
2023/04/01 06:11:01;;;;;;;5.63;4.13;;;10.70;99.90;;;;;;5028317;28;20087;-58
2023/04/01 06:13:46;;;;;;;9.32;5.22;;;10.80;99.90;;;;;;5008524;28;20034;-58
2023/04/01 06:16:46;;;;;;;7.38;4.20;;;10.80;99.90;;;;;;5009512;28;20091;-57
2023/04/01 06:19:33;;;;;;;7.25;4.30;;;10.90;99.90;;;;;;5045789;28;20041;-58
2023/04/01 06:22:20;;;;;;;5.68;3.90;;;11.00;99.90;;;;;;5027172;28;20017;-58
2023/04/01 06:25:21;;;;;;;5.55;3.72;;;11.00;99.90;;;;;;5032799;28;20448;-58
2023/04/01 06:28:23;;;;;;;4.93;3.35;;;11.10;99.90;;;;;;5039391;28;20029;-57
2023/04/01 06:31:15;;;;;;;5.97;3.42;;;11.10;99.90;;;;;;5011189;28;20040;-59
2023/04/01 06:34:08;;;;;;;7.28;3.67;;;11.10;99.90;;;;;;5012268;28;20041;-58
2023/04/01 06:36:48;;;;;;;5.32;3.28;;;11.10;99.90;;;;;;5019370;28;20036;-58
2023/04/01 06:39:37;;;;;;;6.70;3.25;;;11.20;99.90;;;;;;5052279;28;20025;-56
2023/04/01 06:42:14;;;;;;;6.43;3.67;;;11.10;99.90;;;;;;5027369;28;20033;-58
2023/04/01 06:45:01;;;;;;;4.93;3.25;;;11.10;99.90;;;;;;5011965;28;20041;-57
2023/04/01 06:47:51;;;;;;;6.47;3.67;;;11.10;99.90;;;;;;5033494;28;20651;-58
2023/04/01 06:50:28;;;;;;;5.32;3.38;;;11.20;99.90;;;;;;5012044;28;20033;-56
2023/04/01 06:53:29;;;;;;;6.57;3.78;;;11.10;99.90;;;;;;5025613;28;20060;-58
2023/04/01 06:56:07;;;;;;;5.85;3.53;;;11.20;99.90;;;;;;5012060;28;20109;-58
2023/04/01 06:58:51;;;;;;;5.90;3.35;;;11.20;99.90;;;;;;5012278;28;20482;-57
2023/04/01 07:01:26;;;;;;;5.95;3.63;;;11.20;99.90;;;;;;5047896;28;20955;-55
2023/04/01 07:04:04;;;;;;;6.30;3.17;;;11.20;99.90;;;;;;5026282;28;20029;-58
2023/04/01 07:06:35;;;;;;;5.75;3.47;;;11.30;99.90;;;;;;5020692;28;20041;-57
2023/04/01 07:09:08;;;;;;;9.70;4.60;;;11.30;99.90;;;;;;5015816;28;20076;-58
2023/04/01 07:11:37;;;;;;;4.55;3.28;;;11.30;99.90;;;;;;5025217;28;20648;-55
2023/04/01 07:14:25;;;;;;;5.32;3.28;;;11.40;99.90;;;;;;5025444;28;20044;-57
2023/04/01 07:17:24;;;;;;;3.40;2.60;;;11.40;99.90;;;;;;5025250;28;20026;-57
2023/04/01 07:20:19;;;;;;;5.38;3.00;;;11.40;99.90;;;;;;5008430;28;20405;-58
2023/04/01 07:22:58;;;;;;;6.05;3.75;;;11.40;99.90;;;;;;5024154;28;20037;-58
2023/04/01 07:25:39;;;;;;;5.00;3.00;;;11.40;99.90;;;;;;5009659;28;20034;-58
2023/04/01 07:28:16;;;;;;;6.45;2.95;;;11.50;99.90;;;;;;5009584;28;20034;-58
2023/04/01 07:30:57;;;;;;;7.90;4.15;;;11.50;99.90;;;;;;5010550;28;20093;-58
2023/04/01 07:33:52;;;;;;;4.07;2.80;;;11.50;99.90;;;;;;5049031;28;20053;-57
2023/04/01 07:36:39;;;;;;;7.35;3.60;;;11.60;99.90;;;;;;5013693;28;20497;-58
2023/04/01 07:39:29;;;;;;;6.05;4.22;;;11.60;99.90;;;;;;5043552;28;20604;-56
2023/04/01 07:42:09;;;;;;;7.25;4.30;;;11.60;99.90;;;;;;5018827;28;20057;-56
2023/04/01 07:45:03;;;;;;;6.70;4.63;;;11.50;99.90;;;;;;5009254;28;20033;-56
2023/04/01 07:47:56;;;;;;;7.25;5.10;;;11.40;99.90;;;;;;5031024;28;20059;-58
2023/04/01 07:50:33;;;;;;;6.82;4.88;;;11.40;99.90;;;;;;5021603;28;20018;-58
2023/04/01 07:53:16;;;;;;;10.50;6.72;;;11.20;99.90;;;;;;5023591;28;20288;-60
2023/04/01 07:55:58;;;;;;;12.13;6.70;;;11.00;99.90;;;;;;5027947;28;20083;-60
2023/04/01 07:58:42;;;;;;;9.75;6.70;;;10.80;99.90;;;;;;5023645;28;20036;-60
2023/04/01 08:01:26;;;;;;;7.07;4.88;;;10.50;99.90;;;;;;5009715;28;20033;-61
2023/04/01 08:04:22;;;;;;;7.50;4.82;;;10.30;99.90;;;;;;5029747;28;20037;-61
2023/04/01 08:07:00;;;;;;;6.38;4.60;;;10.10;99.90;;;;;;5009636;28;20096;-61
2023/04/01 08:10:01;;;;;;;6.60;4.35;;;10.00;99.90;;;;;;5025630;28;20022;-61
2023/04/01 08:12:32;;;;;;;5.90;4.13;;;10.00;99.90;;;;;;5009677;28;20115;-61
2023/04/01 08:15:22;;;;;;;5.32;4.28;;;10.10;99.90;;;;;;5027886;28;20026;-61
2023/04/01 08:18:08;;;;;;;5.43;3.97;;;10.10;99.90;;;;;;5029391;28;20025;-61
2023/04/01 08:20:45;;;;;;;7.38;4.32;;;10.10;99.90;;;;;;5027968;28;20406;-61
2023/04/01 08:23:26;;;;;;;5.55;4.13;;;10.10;99.90;;;;;;5009731;28;20498;-61
2023/04/01 08:26:06;;;;;;;6.68;4.88;;;10.20;99.90;;;;;;5019045;28;20509;-61
2023/04/01 08:28:34;;;;;;;7.97;5.60;;;10.10;99.90;;;;;;5009410;28;20120;-61
2023/04/01 08:31:08;;;;;;;7.35;5.65;;;10.10;99.90;;;;;;5033055;28;20026;-61
2023/04/01 08:33:35;;;;;;;7.28;5.40;;;10.20;99.90;;;;;;5009088;28;20182;-61
2023/04/01 08:36:21;;;;;;;6.72;5.28;;;10.20;99.90;;;;;;5032729;28;20033;-61
2023/04/01 08:39:15;;;;;;;6.03;4.97;;;10.30;99.90;;;;;;5009538;28;20049;-61
2023/04/01 08:42:12;;;;;;;7.68;5.65;;;10.30;99.90;;;;;;5024806;28;20038;-60
2023/04/01 08:45:02;;;;;;;8.30;5.93;;;10.20;99.90;;;;;;5011508;28;20038;-60
2023/04/01 08:47:51;;;;;;;8.13;6.35;;;10.30;99.90;;;;;;5048674;28;20064;-61
2023/04/01 08:50:36;;;;;;;8.18;5.97;;;10.20;99.90;;;;;;5022524;28;20175;-61
2023/04/01 08:53:20;;;;;;;6.47;4.85;;;10.30;99.90;;;;;;5009252;28;20129;-61
2023/04/01 08:55:55;;;;;;;6.55;4.72;;;10.40;99.90;;;;;;5032771;28;20067;-62
2023/04/01 08:58:46;;;;;;;6.40;4.85;;;10.50;99.90;;;;;;5025544;28;20436;-61
2023/04/01 09:01:33;;;;;;;5.57;4.60;;;10.50;99.90;;;;;;5009031;28;20304;-61
2023/04/01 09:04:08;;;;;;;6.63;5.25;;;10.50;99.90;;;;;;5019647;28;20567;-62
2023/04/01 09:06:57;;;;;;;6.22;5.10;;;10.40;99.90;;;;;;5005522;28;20048;-61
2023/04/01 09:09:51;;;;;;;5.22;4.47;;;10.20;99.90;;;;;;5024537;28;20029;-61
2023/04/01 09:12:50;;;;;;;7.03;4.88;;;10.20;99.90;;;;;;5007869;28;20030;-61
2023/04/01 09:15:30;;;;;;;7.28;5.22;;;10.30;99.90;;;;;;5008902;28;20022;-61
2023/04/01 09:18:15;;;;;;;6.72;5.47;;;10.30;99.90;;;;;;5045681;28;20059;-61
2023/04/01 09:21:13;;;;;;;6.82;5.38;;;10.10;99.90;;;;;;5048462;28;20033;-61
2023/04/01 09:23:38;;;;;;;6.20;5.05;;;10.00;99.90;;;;;;5026841;28;20052;-60
2023/04/01 09:26:07;;;;;;;7.22;5.22;;;10.10;99.90;;;;;;5047769;28;20041;-61
2023/04/01 09:28:58;;;;;;;5.65;4.63;;;10.10;99.90;;;;;;5036494;28;20102;-61
2023/04/01 09:32:01;;;;;;;6.70;4.53;;;10.10;99.90;;;;;;5012138;28;20041;-61
2023/04/01 09:34:39;;;;;;;6.18;5.00;;;10.20;99.90;;;;;;5045819;28;20410;-60
2023/04/01 09:37:18;;;;;;;5.82;4.88;;;10.00;99.90;;;;;;5008447;28;20034;-62
2023/04/01 09:40:15;;;;;;;4.15;3.75;;;10.10;99.90;;;;;;5008697;28;20049;-62
2023/04/01 09:43:05;;;;;;;6.57;4.65;;;10.20;99.90;;;;;;5028136;28;20036;-62
2023/04/01 09:45:43;;;;;;;4.72;4.18;;;10.10;99.90;;;;;;5048071;28;20025;-62
2023/04/01 09:48:34;;;;;;;6.35;5.00;;;10.00;99.90;;;;;;5020544;28;20579;-62
2023/04/01 09:51:29;;;;;;;5.93;4.88;;;10.10;99.90;;;;;;5047961;28;20021;-62
2023/04/01 09:54:17;;;;;;;7.85;4.75;;;9.90;99.90;;;;;;5024128;28;20489;-62
2023/04/01 09:57:10;;;;;;;5.35;4.47;;;9.70;99.90;;;;;;5026630;28;20026;-62
2023/04/01 10:00:16;;;;;;;4.35;3.88;;;9.70;99.90;;;;;;5012139;28;20363;-62
2023/04/01 10:03:16;;;;;;;5.25;4.28;;;9.90;99.90;;;;;;5024558;28;20506;-62
2023/04/01 10:06:03;;;;;;;5.15;4.47;;;10.00;99.90;;;;;;5026528;28;20476;-61
2023/04/01 10:08:56;;;;;;;5.22;4.57;;;9.90;99.90;;;;;;5008000;28;20033;-62
2023/04/01 10:11:46;;;;;;;6.15;5.50;;;9.70;99.90;;;;;;5034216;28;20029;-62
2023/04/01 10:14:46;;;;;;;5.35;3.78;;;9.60;99.90;;;;;;5009643;28;20049;-62
2023/04/01 10:17:58;;;;;;;5.80;3.92;;;9.50;99.90;;;;;;5008121;28;20124;-62
2023/04/01 10:20:38;;;;;;;4.32;3.40;;;9.60;99.90;;;;;;5025366;28;20033;-62
2023/04/01 10:23:22;;;;;;;4.43;2.88;;;9.80;99.90;;;;;;5008047;28;20248;-62
2023/04/01 10:25:53;;;;;;;2.88;2.40;;;10.00;99.90;;;;;;5019031;28;20042;-61
2023/04/01 10:28:33;;;;;;;3.88;2.75;;;10.20;99.90;;;;;;5046555;28;20500;-62
2023/04/01 10:31:11;;;;;;;3.05;2.47;;;10.30;99.90;;;;;;5020283;28;20030;-62
2023/04/01 10:33:49;;;;;;;3.92;2.35;;;10.30;99.90;;;;;;5018553;28;20021;-61
2023/04/01 10:36:40;;;;;;;2.85;2.22;;;10.30;99.90;;;;;;5046601;28;20039;-62
2023/04/01 10:39:37;;;;;;;3.65;2.53;;;10.40;99.90;;;;;;5011651;28;20045;-62
2023/04/01 10:42:34;;;;;;;3.50;2.55;;;10.40;99.90;;;;;;5048156;28;20116;-62
2023/04/01 10:45:44;;;;;;;2.33;1.90;;;10.30;99.90;;;;;;5026886;28;20061;-62
2023/04/01 10:48:41;;;;;;;2.95;2.15;;;10.00;99.90;;;;;;5008925;28;20034;-62
2023/04/01 10:51:25;;;;;;;6.05;2.00;;;9.80;99.90;;;;;;5007517;28;20026;-62
2023/04/01 10:53:56;;;;;;;2.15;1.88;;;9.90;99.90;;;;;;5012566;28;20376;-62
2023/04/01 10:56:39;;;;;;;2.47;2.28;;;9.90;99.90;;;;;;5048160;28;20060;-62
2023/04/01 10:59:33;;;;;;;2.92;2.30;;;10.00;99.90;;;;;;5016424;28;20021;-62
2023/04/01 11:02:32;;;;;;;3.22;2.55;;;10.00;99.90;;;;;;5028910;28;20112;-62
2023/04/01 11:05:49;;;;;;;3.65;2.90;;;9.90;99.90;;;;;;5028753;28;20041;-62
2023/04/01 11:08:20;;;;;;;2.70;2.50;;;9.70;99.90;;;;;;5007224;28;20022;-63
2023/04/01 11:11:25;;;;;;;3.67;2.88;;;9.60;99.90;;;;;;4990187;28;20469;-62
2023/04/01 11:14:21;;;;;;;2.85;2.30;;;9.70;99.90;;;;;;5037526;28;20029;-62
2023/04/01 11:17:05;;;;;;;4.35;2.78;;;9.60;99.90;;;;;;5051691;28;20527;-62
2023/04/01 11:20:08;;;;;;;3.97;2.58;;;9.60;99.90;;;;;;5023243;28;20493;-61
2023/04/01 11:23:10;;;;;;;2.60;2.40;;;9.70;99.90;;;;;;5032121;28;20100;-61
2023/04/01 11:25:47;;;;;;;2.25;2.05;;;9.70;99.90;;;;;;5021021;28;20044;-61
2023/04/01 11:28:44;;;;;;;3.13;2.13;;;9.80;99.90;;;;;;5028699;28;20033;-61
2023/04/01 11:31:42;;;;;;;4.07;2.45;;;9.70;99.90;;;;;;5021761;28;20726;-61
2023/04/01 11:34:23;;;;;;;2.40;2.03;;;9.60;99.90;;;;;;5029183;28;20067;-61
2023/04/01 11:37:29;;;;;;;3.70;2.30;;;9.50;99.90;;;;;;5031893;28;20033;-61
2023/04/01 11:40:24;;;;;;;2.05;1.90;;;9.50;99.90;;;;;;5037747;28;20028;-61
2023/04/01 11:42:58;;;;;;;3.17;2.20;;;9.50;99.90;;;;;;5047066;28;20032;-61
2023/04/01 11:45:39;;;;;;;5.25;2.90;;;9.50;99.90;;;;;;5031965;28;20043;-62
2023/04/01 11:48:23;;;;;;;3.53;2.42;;;9.30;99.90;;;;;;5025395;28;20108;-61
2023/04/01 11:51:18;;;;;;;3.58;2.10;;;9.20;99.90;;;;;;5022333;28;20037;-61
2023/04/01 11:53:59;;;;;;;3.15;2.30;;;9.30;99.90;;;;;;5018913;28;20060;-61
2023/04/01 11:56:34;;;;;;;4.07;2.83;;;9.40;99.90;;;;;;5034148;28;20026;-62
2023/04/01 11:59:40;;;;;;;3.88;2.67;;;9.30;99.90;;;;;;5021272;28;20543;-61
2023/04/01 12:02:08;;;;;;;5.07;2.80;;;9.30;99.90;;;;;;5015962;28;20014;-61
2023/04/01 12:04:54;;;;;;;3.50;2.70;;;9.30;99.90;;;;;;5036696;28;20413;-62
2023/04/01 12:07:52;;;;;;;4.30;2.50;;;9.30;99.90;;;;;;5017797;28;20034;-61
2023/04/01 12:10:24;;;;;;;4.32;3.13;;;9.10;99.90;;;;;;5033050;28;20513;-62
2023/04/01 12:13:05;;;;;;;4.05;3.10;;;9.10;99.90;;;;;;5029110;28;20401;-61
2023/04/01 12:16:29;;;;;;;4.85;3.10;;;8.90;99.90;;;;;;5030382;28;20109;-61
2023/04/01 12:19:30;;;;;;;4.80;2.63;;;8.80;99.90;;;;;;4964612;28;20027;-62
2023/04/01 12:22:29;;;;;;;2.97;2.67;;;8.60;99.90;;;;;;5011386;28;20034;-62
2023/04/01 12:25:16;;;;;;;4.75;3.00;;;8.70;99.90;;;;;;5019589;28;20584;-62
2023/04/01 12:27:59;;;;;;;3.03;2.53;;;8.70;99.90;;;;;;5038631;28;20037;-62
2023/04/01 12:30:57;;;;;;;3.28;2.78;;;8.70;99.90;;;;;;5028649;28;20030;-61
2023/04/01 12:33:48;;;;;;;3.13;2.67;;;8.90;99.90;;;;;;5032585;28;20106;-62
2023/04/01 12:36:54;;;;;;;4.82;3.15;;;9.10;99.90;;;;;;5039731;28;20029;-62
2023/04/01 12:39:31;;;;;;;5.10;3.13;;;9.10;99.90;;;;;;5016156;28;20028;-62
2023/04/01 12:42:15;;;;;;;4.93;3.00;;;9.10;99.90;;;;;;5021126;28;20060;-62
2023/04/01 12:45:12;;;;;;;3.67;3.05;;;9.10;99.90;;;;;;5017940;28;20088;-62
2023/04/01 12:47:51;;;;;;;4.07;3.30;;;9.20;99.90;;;;;;5030232;28;20045;-61
2023/04/01 12:50:28;;;;;;;7.15;3.53;;;9.00;99.90;;;;;;5034599;28;20025;-62
2023/04/01 12:53:03;;;;;;;3.97;2.95;;;8.90;99.90;;;;;;5022371;28;20584;-62
2023/04/01 12:55:40;;;;;;;3.58;2.58;;;8.80;99.90;;;;;;5012647;28;20709;-61
2023/04/01 12:58:49;;;;;;;3.88;2.80;;;8.90;99.90;;;;;;5029842;28;20044;-62
2023/04/01 13:01:28;;;;;;;4.18;2.50;;;8.80;99.90;;;;;;5047279;28;20501;-62
2023/04/01 13:04:39;;;;;;;2.65;2.45;;;8.80;99.90;;;;;;5019245;28;20033;-62
2023/04/01 13:07:13;;;;;;;4.00;2.63;;;8.90;99.90;;;;;;5012497;28;20040;-62
2023/04/01 13:09:57;;;;;;;3.42;1.92;;;8.90;99.90;;;;;;5023915;28;20033;-61
2023/04/01 13:12:53;;;;;;;2.72;1.98;;;8.90;99.90;;;;;;5022003;28;20408;-60
2023/04/01 13:15:42;;;;;;;3.42;2.25;;;8.90;99.90;;;;;;5032088;28;20026;-61
2023/04/01 13:18:20;;;;;;;4.10;1.75;;;9.10;99.90;;;;;;5038043;28;20194;-62
2023/04/01 13:21:08;;;;;;;2.67;2.20;;;9.10;99.90;;;;;;5014606;28;20025;-62
2023/04/01 13:23:59;;;;;;;2.78;1.90;;;9.20;99.90;;;;;;5032225;28;20027;-61
2023/04/01 13:26:48;;;;;;;3.25;1.60;;;9.20;99.90;;;;;;5023156;28;20136;-61
2023/04/01 13:29:32;;;;;;;3.35;1.50;;;9.30;99.90;;;;;;5004179;28;20048;-61
2023/04/01 13:32:21;;;;;;;3.50;1.60;;;9.20;99.90;;;;;;5018594;28;20084;-61
2023/04/01 13:35:10;;;;;;;2.97;1.60;;;9.20;99.90;;;;;;5017651;28;20029;-61
2023/04/01 13:38:03;;;;;;;2.33;1.70;;;9.20;99.90;;;;;;5022973;28;20029;-61
2023/04/01 13:40:28;;;;;;;2.92;1.73;;;9.20;99.90;;;;;;5008045;28;20290;-61
2023/04/01 13:43:20;;;;;;;1.60;1.48;;;9.30;99.90;;;;;;5036843;28;20417;-61
2023/04/01 13:46:01;;;;;;;2.35;1.58;;;9.30;99.90;;;;;;5028044;28;20079;-61